General Aviation Weather

Text Reports

Enter one or more of the following location identifiers separated by a space:

Zip Code, Four-Character ICAO or Three-Character IATA airport codes.

METAR - Aviation Routine Weather Report
KPRX - Paris, Texas
Updated at 11:55 AM GMT on January 16, 2017 (5:55 AM CST):
METAR KPRX 161155Z 16008KT 10SM SCT005 BKN026 OVC043 14/13 A2994 RMK AO1 60065 70137 10170 20140 54000
TAF - Terminal Area Forecast
KPRX - Paris, Texas
Updated at 11:55 AM GMT on January 16, 2017 (5:55 AM CST):
No TAF is currently available for this location.
Decoded:
No decoded TAF is available.
PIREP - Pilot Weather Report
KPRX - Paris, Texas
Updated at 11:55 AM GMT on January 16, 2017 (5:55 AM CST):
No PIREP is currently available for this location.
AIRMET - Airmens Meteorological Information
KPRX - Paris, Texas
Updated at 11:55 AM GMT on January 16, 2017 (5:55 AM CST):
No AIRMET is currently available for this location.
SIGMET - Significant Meteorological Information
KPRX - Paris, Texas
Updated at 11:55 AM GMT on January 16, 2017 (5:55 AM CST):
No SIGMET is currently available for this location.
NOTAM - Notice to Airmen
KPRX - Paris, Texas
Updated at 11:55 AM GMT on January 16, 2017 (5:55 AM CST):
No NOTAM is currently available for this location.
Forecast Area
KPRX - Paris, Texas
Updated at 11:55 AM GMT on January 16, 2017 (5:55 AM CST):
No NOTAM is currently available for this location.
Aviation Weather Maps